Collinsville, Ohio
Current Conditions -  °F | °C
As of 8:35 PM on Tuesday 21 Oct 2014 (Local Time) from KMWO Reporting Station
Overcast Overcast  
Wind Chill: 51°   Ceiling: 4100
Heat Index: 51°   Visibility: 10mi
Dew Point: 42°   Wind: 9mph
Humidity: 74%   Direction: 20°NNE
Pressure: 30.16"   Gusts: NA
Location:  39.52°N, 84.61°W
Report Text: KMWO 220035Z AUTO 02008KT 10SM BKN041 OVC047 10/06 A3016 RMK AO2 T01030058
Loading
Personal Weather Stations






























Interactive Weather Map
Tropical Storm Tracking
New forecast layout! Learn more

10-Day Weather Forecast

Advertisements
Track Severe Weather on mobile